createdAt,value
2019-05-17T00:00:13.910Z,8.60
2019-05-17T00:01:16.506Z,8.40
2019-05-17T00:02:14.089Z,8.70
2019-05-17T00:03:14.190Z,8.20
2019-05-17T00:04:16.471Z,8.80
2019-05-17T00:05:14.371Z,7.80
2019-05-17T00:06:16.728Z,7.90
2019-05-17T00:07:16.556Z,8.50
2019-05-17T00:08:17.701Z,8.80
2019-05-17T00:09:14.744Z,8.40
2019-05-17T00:10:17.030Z,9.20
2019-05-17T00:11:16.806Z,9.10
2019-05-17T00:12:16.607Z,8.80
2019-05-17T00:13:17.257Z,8.90
2019-05-17T00:14:16.768Z,9.10
2019-05-17T00:15:17.053Z,8.80
2019-05-17T00:16:17.377Z,9.20
2019-05-17T00:17:17.352Z,8.60
2019-05-17T00:18:17.145Z,8.30
2019-05-17T00:19:16.891Z,8.50
2019-05-17T00:20:17.299Z,9.20
2019-05-17T00:21:17.004Z,8.30
2019-05-17T00:22:16.676Z,8.90
2019-05-17T00:23:17.421Z,9.30
2019-05-17T00:24:18.214Z,8.80
2019-05-17T00:25:16.627Z,8.90
2019-05-17T00:26:16.516Z,8.60
2019-05-17T00:27:17.189Z,9.00
2019-05-17T00:28:16.564Z,9.20
2019-05-17T00:29:17.269Z,8.90
2019-05-17T00:30:17.676Z,9.10
2019-05-17T00:31:17.170Z,9.10
2019-05-17T00:32:17.253Z,9.50
2019-05-17T00:33:17.144Z,10.30
2019-05-17T00:34:17.045Z,9.70
2019-05-17T00:35:17.760Z,10.10
2019-05-17T00:36:17.866Z,9.30
2019-05-17T00:37:17.533Z,10.10
2019-05-17T00:38:17.418Z,10.10
2019-05-17T00:39:17.511Z,9.70
2019-05-17T00:40:17.601Z,9.70
2019-05-17T00:41:17.775Z,9.90
2019-05-17T00:42:17.783Z,9.20
2019-05-17T00:43:17.872Z,9.60
2019-05-17T00:44:17.959Z,9.60
2019-05-17T00:45:18.050Z,9.40
2019-05-17T00:46:18.140Z,9.90
2019-05-17T00:47:18.234Z,10.00
2019-05-17T00:48:18.323Z,10.30
2019-05-17T00:49:18.417Z,10.60
2019-05-17T00:50:18.508Z,10.80
2019-05-17T00:51:27.487Z,11.00
2019-05-17T00:52:18.737Z,9.90
2019-05-17T00:53:18.830Z,10.20
2019-05-17T00:54:18.914Z,10.50
2019-05-17T00:55:19.003Z,9.80
2019-05-17T00:56:19.097Z,10.30
2019-05-17T00:57:19.189Z,9.40
2019-05-17T00:58:19.278Z,10.90
2019-05-17T00:59:19.372Z,10.60
2019-05-17T01:00:19.461Z,10.10
2019-05-17T01:01:19.551Z,10.30
2019-05-17T01:02:19.646Z,10.40
2019-05-17T01:03:19.734Z,10.00
2019-05-17T01:04:19.835Z,9.80
2019-05-17T01:05:19.923Z,9.70
2019-05-17T01:06:20.012Z,9.70
2019-05-17T01:07:20.108Z,11.20
2019-05-17T01:08:20.198Z,10.30
2019-05-17T01:09:20.290Z,10.10
2019-05-17T01:10:20.386Z,10.60
2019-05-17T01:11:20.480Z,9.60
2019-05-17T01:12:20.575Z,9.60
2019-05-17T01:13:20.669Z,10.30
2019-05-17T01:14:20.757Z,10.40
2019-05-17T01:15:20.852Z,10.10
2019-05-17T01:16:20.942Z,10.60
2019-05-17T01:17:21.033Z,10.70
2019-05-17T01:18:21.145Z,10.90
2019-05-17T01:19:21.254Z,10.30
2019-05-17T01:20:21.321Z,11.10
2019-05-17T01:21:21.418Z,10.40
2019-05-17T01:22:21.506Z,10.90
2019-05-17T01:23:21.591Z,10.60
2019-05-17T01:24:21.682Z,10.40
2019-05-17T01:25:21.774Z,10.70
2019-05-17T01:26:21.864Z,11.00
2019-05-17T01:27:21.954Z,11.10
2019-05-17T01:28:22.048Z,10.90
2019-05-17T01:29:22.135Z,11.50
2019-05-17T01:30:22.229Z,11.30
2019-05-17T01:31:22.323Z,10.80
2019-05-17T01:32:22.413Z,11.30
2019-05-17T01:33:22.504Z,10.90
2019-05-17T01:34:22.597Z,10.80
2019-05-17T01:35:22.697Z,11.40
2019-05-17T01:36:22.781Z,11.00
2019-05-17T01:37:22.878Z,11.10
2019-05-17T01:38:22.965Z,11.70
2019-05-17T01:39:23.062Z,11.20
2019-05-17T01:40:23.155Z,11.40
2019-05-17T01:41:23.247Z,11.10
2019-05-17T01:42:23.339Z,11.00
2019-05-17T01:43:23.430Z,11.50
2019-05-17T01:44:23.522Z,11.00
2019-05-17T01:45:23.609Z,11.00
2019-05-17T01:46:23.703Z,11.20
2019-05-17T01:47:23.791Z,11.60
2019-05-17T01:48:23.884Z,11.30
2019-05-17T01:49:23.974Z,10.80
2019-05-17T01:50:24.071Z,12.10
2019-05-17T01:51:26.230Z,12.20
2019-05-17T01:52:24.253Z,11.30
2019-05-17T01:53:24.347Z,11.40
2019-05-17T01:54:26.757Z,12.30
2019-05-17T01:55:26.425Z,11.30
2019-05-17T01:56:26.281Z,11.30
2019-05-17T01:57:27.267Z,11.30
2019-05-17T01:58:26.903Z,12.20
2019-05-17T01:59:26.754Z,11.60
2019-05-17T02:00:26.584Z,11.10
2019-05-17T02:01:27.394Z,11.10
2019-05-17T02:02:26.977Z,10.60
2019-05-17T02:03:26.761Z,11.80
2019-05-17T02:04:26.769Z,11.70
2019-05-17T02:05:27.365Z,11.50
2019-05-17T02:06:27.116Z,10.90
2019-05-17T02:07:26.726Z,11.70
2019-05-17T02:08:26.421Z,11.80
2019-05-17T02:09:37.268Z,11.40
2019-05-17T02:10:27.130Z,11.40
2019-05-17T02:11:26.963Z,11.20
2019-05-17T02:12:26.732Z,10.80
2019-05-17T02:13:26.758Z,11.30
2019-05-17T02:14:26.754Z,11.20
2019-05-17T02:15:26.824Z,11.30
2019-05-17T02:16:26.843Z,12.00
2019-05-17T02:17:26.638Z,11.20
2019-05-17T02:18:26.742Z,10.80
2019-05-17T02:19:26.742Z,11.50
2019-05-17T02:20:27.520Z,11.30
2019-05-17T02:21:27.461Z,11.60
2019-05-17T02:22:27.249Z,11.60
2019-05-17T02:23:27.240Z,11.60
2019-05-17T02:24:27.563Z,11.90
2019-05-17T02:25:27.363Z,11.80
2019-05-17T02:26:27.357Z,12.20
2019-05-17T02:27:34.113Z,11.80
2019-05-17T02:28:27.548Z,12.00
2019-05-17T02:29:27.641Z,12.50
2019-05-17T02:30:27.733Z,12.10
2019-05-17T02:31:27.823Z,12.90
2019-05-17T02:32:27.920Z,12.10
2019-05-17T02:33:28.017Z,12.10
2019-05-17T02:34:28.095Z,12.00
2019-05-17T02:35:28.181Z,12.50
2019-05-17T02:36:28.272Z,11.80
2019-05-17T02:37:28.363Z,12.80
2019-05-17T02:38:28.450Z,12.60
2019-05-17T02:39:28.546Z,12.40
2019-05-17T02:40:28.636Z,12.50
2019-05-17T02:41:28.729Z,12.50
2019-05-17T02:42:28.818Z,12.60
2019-05-17T02:43:28.911Z,12.00
2019-05-17T02:44:28.999Z,11.70
2019-05-17T02:45:29.098Z,12.80
2019-05-17T02:46:29.184Z,12.30
2019-05-17T02:47:29.280Z,12.40
2019-05-17T02:48:29.370Z,12.90
2019-05-17T02:49:32.835Z,12.40
2019-05-17T02:50:32.783Z,12.50
2019-05-17T02:51:32.156Z,12.40
2019-05-17T02:52:32.652Z,12.50
2019-05-17T02:53:33.185Z,13.40
2019-05-17T02:54:32.584Z,12.60
2019-05-17T02:55:32.506Z,13.20
2019-05-17T02:56:32.815Z,11.80
2019-05-17T02:57:30.198Z,13.00
2019-05-17T02:58:32.822Z,12.70
2019-05-17T02:59:33.109Z,12.00
2019-05-17T03:00:34.090Z,12.30
2019-05-17T03:01:33.278Z,11.80
2019-05-17T03:02:33.848Z,12.20
2019-05-17T03:03:32.307Z,11.90
2019-05-17T03:04:32.649Z,11.70
2019-05-17T03:05:33.836Z,12.10
2019-05-17T03:06:32.929Z,11.70
2019-05-17T03:07:32.614Z,12.00
2019-05-17T03:08:34.066Z,12.00
2019-05-17T03:09:33.629Z,11.40
2019-05-17T03:10:33.532Z,11.00
2019-05-17T03:11:33.299Z,11.20
2019-05-17T03:12:33.003Z,11.80
2019-05-17T03:13:32.884Z,11.80
2019-05-17T03:14:32.803Z,11.80
2019-05-17T03:15:32.495Z,11.80
2019-05-17T03:16:33.902Z,11.60
2019-05-17T03:17:33.768Z,12.10
2019-05-17T03:18:33.329Z,11.50
2019-05-17T03:19:32.981Z,11.50
2019-05-17T03:20:32.935Z,11.30
2019-05-17T03:21:33.724Z,11.70
2019-05-17T03:22:33.173Z,11.80
2019-05-17T03:23:33.002Z,11.60
2019-05-17T03:24:33.379Z,12.30
2019-05-17T03:25:33.627Z,13.30
2019-05-17T03:26:33.095Z,12.40
2019-05-17T03:27:33.741Z,12.10
2019-05-17T03:28:33.921Z,12.10
2019-05-17T03:29:33.726Z,12.30
2019-05-17T03:30:36.860Z,13.10
2019-05-17T03:31:41.934Z,12.90
2019-05-17T03:32:36.247Z,12.20
2019-05-17T03:33:36.116Z,12.80
2019-05-17T03:34:36.971Z,12.50
2019-05-17T03:35:37.931Z,13.30
2019-05-17T03:36:36.074Z,13.40
2019-05-17T03:37:37.685Z,12.70
2019-05-17T03:38:34.020Z,12.00
2019-05-17T03:39:34.096Z,13.30
2019-05-17T03:40:58.427Z,13.40
2019-05-17T03:41:34.342Z,13.50
2019-05-17T03:42:34.373Z,13.30
2019-05-17T03:43:35.454Z,13.40
2019-05-17T03:44:34.577Z,13.50
2019-05-17T03:45:34.646Z,13.70
2019-05-17T03:46:34.736Z,13.90
2019-05-17T03:47:34.837Z,13.70
2019-05-17T03:48:34.921Z,13.90
2019-05-17T03:49:39.160Z,13.80
2019-05-17T03:50:35.104Z,14.40
2019-05-17T03:51:35.204Z,13.80
2019-05-17T03:52:35.291Z,14.10
2019-05-17T03:53:35.396Z,14.10
2019-05-17T03:54:35.490Z,14.10
2019-05-17T03:55:35.580Z,14.10
2019-05-17T03:56:35.668Z,13.40
2019-05-17T03:57:35.780Z,13.90
2019-05-17T03:58:35.847Z,13.50
2019-05-17T03:59:35.955Z,13.80
2019-05-17T04:00:36.028Z,13.50
2019-05-17T04:01:36.120Z,13.90
2019-05-17T04:02:36.214Z,13.30
2019-05-17T04:03:36.303Z,13.40
2019-05-17T04:04:36.388Z,13.50
2019-05-17T04:05:36.478Z,13.60
2019-05-17T04:06:36.572Z,13.40
2019-05-17T04:07:36.670Z,12.80
2019-05-17T04:08:36.756Z,13.50
2019-05-17T04:09:37.730Z,13.90
2019-05-17T04:10:36.963Z,14.10
2019-05-17T04:11:37.058Z,13.70
2019-05-17T04:12:37.150Z,12.40
2019-05-17T04:13:37.253Z,13.30
2019-05-17T04:14:37.335Z,13.50
2019-05-17T04:15:37.427Z,13.40
2019-05-17T04:16:37.538Z,13.40
2019-05-17T04:17:37.609Z,13.50
2019-05-17T04:18:37.697Z,13.90
2019-05-17T04:19:37.792Z,12.40
2019-05-17T04:20:37.882Z,13.50
2019-05-17T04:21:37.974Z,13.60
2019-05-17T04:22:38.066Z,13.60
2019-05-17T04:23:38.157Z,13.00
2019-05-17T04:24:38.253Z,13.70
2019-05-17T04:25:38.949Z,13.50
2019-05-17T04:26:38.439Z,13.40
2019-05-17T04:27:38.536Z,13.70
2019-05-17T04:28:38.610Z,14.50
2019-05-17T04:29:38.715Z,13.20
2019-05-17T04:30:38.797Z,13.80
2019-05-17T04:31:38.889Z,14.20
2019-05-17T04:32:38.984Z,13.80
2019-05-17T04:33:39.064Z,13.30
2019-05-17T04:34:39.177Z,13.40
2019-05-17T04:35:39.246Z,13.60
2019-05-17T04:36:39.337Z,13.50
2019-05-17T04:37:39.434Z,13.60
2019-05-17T04:38:39.520Z,13.80
2019-05-17T04:39:39.618Z,13.20
2019-05-17T04:40:42.905Z,13.00
2019-05-17T04:41:46.953Z,12.90
2019-05-17T04:42:43.502Z,13.30
2019-05-17T04:43:42.435Z,12.70
2019-05-17T04:44:42.953Z,12.60
2019-05-17T04:45:42.590Z,13.30
2019-05-17T04:46:42.923Z,13.10
2019-05-17T04:47:43.718Z,12.80
2019-05-17T04:48:43.504Z,12.70
2019-05-17T04:49:43.733Z,13.00
2019-05-17T04:50:42.870Z,12.80
2019-05-17T04:51:43.863Z,12.00
2019-05-17T04:52:42.918Z,12.50
2019-05-17T04:53:42.991Z,13.30
2019-05-17T04:54:42.435Z,12.80
2019-05-17T04:55:43.090Z,12.30
2019-05-17T04:56:42.641Z,11.50
2019-05-17T04:57:44.040Z,11.60
2019-05-17T04:58:42.844Z,12.40
2019-05-17T04:59:43.398Z,11.90
2019-05-17T05:00:43.092Z,12.70
2019-05-17T05:01:43.631Z,11.50
2019-05-17T05:02:43.683Z,11.60
2019-05-17T05:03:43.028Z,11.40
2019-05-17T05:04:43.560Z,11.70
2019-05-17T05:05:42.768Z,12.00
2019-05-17T05:06:43.599Z,11.40
2019-05-17T05:07:43.233Z,11.70
2019-05-17T05:08:42.679Z,11.30
2019-05-17T05:09:43.144Z,11.60
2019-05-17T05:10:42.861Z,11.90
2019-05-17T05:11:56.176Z,12.00
2019-05-17T05:12:43.460Z,11.50
2019-05-17T05:13:42.850Z,11.90
2019-05-17T05:14:43.272Z,12.30
2019-05-17T05:15:44.365Z,11.00
2019-05-17T05:16:43.075Z,11.60
2019-05-17T05:17:43.251Z,11.50
2019-05-17T05:18:43.261Z,11.90
2019-05-17T05:19:43.350Z,11.80
2019-05-17T05:20:43.996Z,12.10
2019-05-17T05:21:43.539Z,11.70
2019-05-17T05:22:43.635Z,11.00
2019-05-17T05:23:43.726Z,11.40
2019-05-17T05:24:43.826Z,11.00
2019-05-17T05:25:43.917Z,10.70
2019-05-17T05:26:44.011Z,11.30
2019-05-17T05:27:44.109Z,11.70
2019-05-17T05:28:44.203Z,12.10
2019-05-17T05:29:44.302Z,11.90
2019-05-17T05:30:44.389Z,11.80
2019-05-17T05:31:44.476Z,11.20
2019-05-17T05:32:44.572Z,11.40
2019-05-17T05:33:44.670Z,11.50
2019-05-17T05:34:46.442Z,11.40
2019-05-17T05:35:44.840Z,11.40
2019-05-17T05:36:44.932Z,11.50
2019-05-17T05:37:45.023Z,11.60
2019-05-17T05:38:45.119Z,11.50
2019-05-17T05:39:45.212Z,12.30
2019-05-17T05:40:45.305Z,11.70
2019-05-17T05:41:45.400Z,10.90
2019-05-17T05:42:45.490Z,12.20
2019-05-17T05:43:45.582Z,11.30
2019-05-17T05:44:45.678Z,12.10
2019-05-17T05:45:45.767Z,11.80
2019-05-17T05:46:45.857Z,11.80
2019-05-17T05:47:45.953Z,11.30
2019-05-17T05:48:46.046Z,11.80
2019-05-17T05:49:46.139Z,11.80
2019-05-17T05:50:46.234Z,11.90
2019-05-17T05:51:46.326Z,11.80
2019-05-17T05:52:46.417Z,10.70
2019-05-17T05:53:46.533Z,11.50
2019-05-17T05:54:46.626Z,11.10
2019-05-17T05:55:46.722Z,12.20
2019-05-17T05:56:46.815Z,11.50
2019-05-17T05:57:46.909Z,11.80
2019-05-17T05:58:47.001Z,11.90
2019-05-17T05:59:47.094Z,11.80
2019-05-17T06:00:47.185Z,11.80
2019-05-17T06:01:47.277Z,12.40
2019-05-17T06:02:47.374Z,12.40
2019-05-17T06:03:47.463Z,12.00
2019-05-17T06:04:47.556Z,11.60
2019-05-17T06:05:47.649Z,11.60
2019-05-17T06:06:47.746Z,11.60
2019-05-17T06:07:47.837Z,12.00
2019-05-17T06:08:47.932Z,11.90
2019-05-17T06:09:48.023Z,12.60
2019-05-17T06:10:48.121Z,13.00
2019-05-17T06:11:48.215Z,12.90
2019-05-17T06:12:48.324Z,12.40
2019-05-17T06:13:48.413Z,13.00
2019-05-17T06:14:48.504Z,12.80
2019-05-17T06:15:48.598Z,12.40
2019-05-17T06:16:48.690Z,13.60
2019-05-17T06:17:48.780Z,13.50
2019-05-17T06:18:48.870Z,13.20
2019-05-17T06:19:48.970Z,12.90
2019-05-17T06:20:49.064Z,12.80
2019-05-17T06:21:49.155Z,13.00
2019-05-17T06:22:49.247Z,12.60
2019-05-17T06:23:51.535Z,13.20
2019-05-17T06:24:51.866Z,12.20
2019-05-17T06:25:52.028Z,13.60
2019-05-17T06:26:49.616Z,11.90
2019-05-17T06:27:51.978Z,12.90
2019-05-17T06:28:51.870Z,12.30
2019-05-17T06:29:51.512Z,12.90
2019-05-17T06:30:52.130Z,12.80
2019-05-17T06:31:51.839Z,12.60
2019-05-17T06:32:51.740Z,12.90
2019-05-17T06:33:52.345Z,12.80
2019-05-17T06:34:51.504Z,12.90
2019-05-17T06:35:52.549Z,12.60
2019-05-17T06:36:52.637Z,12.90
2019-05-17T06:37:50.646Z,12.40
2019-05-17T06:38:52.753Z,12.60
2019-05-17T06:39:52.643Z,12.20
2019-05-17T06:40:52.342Z,12.20
2019-05-17T06:41:52.201Z,12.70
2019-05-17T06:42:52.547Z,12.40
2019-05-17T06:43:52.381Z,12.60
2019-05-17T06:44:52.335Z,12.70
2019-05-17T06:45:52.248Z,11.80
2019-05-17T06:46:51.967Z,11.30
2019-05-17T06:47:51.920Z,12.20
2019-05-17T06:48:52.970Z,11.70
2019-05-17T06:49:53.537Z,11.80
2019-05-17T06:50:52.059Z,11.90
2019-05-17T06:51:51.971Z,13.10
2019-05-17T06:52:53.237Z,11.90
2019-05-17T06:53:52.475Z,11.30
2019-05-17T06:54:52.568Z,12.00
2019-05-17T06:55:53.480Z,11.60
2019-05-17T06:56:52.663Z,11.60
2019-05-17T06:57:52.861Z,11.40
2019-05-17T06:58:52.616Z,11.60
2019-05-17T06:59:52.709Z,10.90
2019-05-17T07:00:52.802Z,11.20
2019-05-17T07:01:52.896Z,11.00
2019-05-17T07:02:52.986Z,10.40
2019-05-17T07:03:53.080Z,11.00
2019-05-17T07:04:53.189Z,10.80
2019-05-17T07:05:53.279Z,10.30
2019-05-17T07:06:53.375Z,10.30
2019-05-17T07:07:53.477Z,10.20
2019-05-17T07:08:53.563Z,10.90
2019-05-17T07:09:53.657Z,11.10
2019-05-17T07:10:53.752Z,10.90
2019-05-17T07:11:53.846Z,10.70
2019-05-17T07:12:58.629Z,9.80
2019-05-17T07:13:54.033Z,10.10
2019-05-17T07:14:54.124Z,10.30
2019-05-17T07:16:01.370Z,9.80
2019-05-17T07:16:54.337Z,10.30
2019-05-17T07:17:54.432Z,9.80
2019-05-17T07:18:54.524Z,9.70
2019-05-17T07:19:54.617Z,10.10
2019-05-17T07:20:54.711Z,9.80
2019-05-17T07:21:54.803Z,10.10
2019-05-17T07:22:54.894Z,9.40
2019-05-17T07:23:54.987Z,9.80
2019-05-17T07:24:55.073Z,10.10
2019-05-17T07:25:55.183Z,9.80
2019-05-17T07:26:55.272Z,9.20
2019-05-17T07:27:55.366Z,10.20
2019-05-17T07:28:55.458Z,9.80
2019-05-17T07:29:55.554Z,9.80
2019-05-17T07:30:55.648Z,9.60
2019-05-17T07:31:55.743Z,9.30
2019-05-17T07:32:55.834Z,9.30
2019-05-17T07:33:55.928Z,9.00
2019-05-17T07:34:56.022Z,9.50
2019-05-17T07:35:56.115Z,9.30
2019-05-17T07:36:56.205Z,9.10
2019-05-17T07:37:56.307Z,9.20
2019-05-17T07:38:56.407Z,9.10
2019-05-17T07:40:01.113Z,9.00
2019-05-17T07:40:56.590Z,10.30
2019-05-17T07:41:56.674Z,9.10
2019-05-17T07:43:10.117Z,9.70
2019-05-17T07:43:56.868Z,9.20
2019-05-17T07:44:56.961Z,9.10
2019-05-17T07:45:57.054Z,9.70
2019-05-17T07:46:57.163Z,9.30
2019-05-17T07:47:57.241Z,9.30
2019-05-17T07:48:57.344Z,9.10
2019-05-17T07:49:57.429Z,9.20
2019-05-17T07:50:59.373Z,9.40
2019-05-17T07:51:57.632Z,9.40
2019-05-17T07:52:57.714Z,9.50
2019-05-17T07:53:59.718Z,9.70
2019-05-17T07:55:02.332Z,9.80
2019-05-17T07:55:59.650Z,9.80
2019-05-17T07:57:00.291Z,9.50
2019-05-17T07:58:00.163Z,8.80
2019-05-17T07:59:00.034Z,9.60
2019-05-17T07:59:59.996Z,9.00
2019-05-17T08:00:58.452Z,9.50
2019-05-17T08:01:59.727Z,9.20
2019-05-17T08:02:59.929Z,8.90
2019-05-17T08:04:00.689Z,9.90
2019-05-17T08:05:00.416Z,9.40
2019-05-17T08:05:59.958Z,8.90
2019-05-17T08:06:59.857Z,9.30
2019-05-17T08:08:00.110Z,9.20
2019-05-17T08:09:03.933Z,9.20
2019-05-17T08:10:00.112Z,9.10
2019-05-17T08:11:00.397Z,8.40
2019-05-17T08:11:59.805Z,9.20
2019-05-17T08:12:59.926Z,8.80
2019-05-17T08:13:59.886Z,9.00
2019-05-17T08:15:00.011Z,11.40
2019-05-17T08:15:59.879Z,9.30
2019-05-17T08:16:59.995Z,8.90
2019-05-17T08:18:01.848Z,9.60
2019-05-17T08:19:00.439Z,8.90
2019-05-17T08:20:00.736Z,8.80
2019-05-17T08:21:00.354Z,8.40
2019-05-17T08:22:00.467Z,9.30
2019-05-17T08:23:00.537Z,8.50
2019-05-17T08:24:00.632Z,8.40
2019-05-17T08:25:00.725Z,9.10
2019-05-17T08:26:00.873Z,8.60
2019-05-17T08:27:00.920Z,8.90
2019-05-17T08:28:01.010Z,8.50
2019-05-17T08:29:01.123Z,8.10
2019-05-17T08:30:01.220Z,9.00
2019-05-17T08:31:01.451Z,8.60
2019-05-17T08:32:01.407Z,8.20
2019-05-17T08:33:01.501Z,8.00
2019-05-17T08:34:01.593Z,8.00
2019-05-17T08:35:01.697Z,9.10
2019-05-17T08:36:01.786Z,8.20
2019-05-17T08:37:01.880Z,8.30
2019-05-17T08:38:01.975Z,8.00
2019-05-17T08:39:02.067Z,8.10
2019-05-17T08:40:02.187Z,7.60
2019-05-17T08:41:02.261Z,8.20
2019-05-17T08:42:02.351Z,8.00
2019-05-17T08:43:02.444Z,7.60
2019-05-17T08:44:02.539Z,7.70
2019-05-17T08:45:02.631Z,7.70
2019-05-17T08:46:02.914Z,8.00
2019-05-17T08:47:02.826Z,8.50
2019-05-17T08:48:02.935Z,8.00
2019-05-17T08:49:03.012Z,8.40
2019-05-17T08:50:03.107Z,7.90
2019-05-17T08:51:03.203Z,8.30
2019-05-17T08:52:03.297Z,8.10
2019-05-17T08:53:03.396Z,7.90
2019-05-17T08:54:03.492Z,7.80
2019-05-17T08:55:03.584Z,7.70
2019-05-17T08:56:03.698Z,8.40
2019-05-17T08:57:03.795Z,7.70
2019-05-17T08:58:03.888Z,7.00
2019-05-17T08:59:03.979Z,6.80
2019-05-17T09:00:04.073Z,7.10
2019-05-17T09:01:04.169Z,7.20
2019-05-17T09:02:04.263Z,6.70
2019-05-17T09:03:04.358Z,6.60
2019-05-17T09:04:04.444Z,7.20
2019-05-17T09:05:04.541Z,7.40
2019-05-17T09:06:04.655Z,8.00
2019-05-17T09:07:04.729Z,7.50
2019-05-17T09:08:04.824Z,7.20
2019-05-17T09:09:04.936Z,7.60
2019-05-17T09:10:05.026Z,7.70
2019-05-17T09:11:05.119Z,7.10
2019-05-17T09:12:05.213Z,7.50
2019-05-17T09:13:05.308Z,6.70
2019-05-17T09:14:05.405Z,7.60
2019-05-17T09:15:05.497Z,7.20
2019-05-17T09:16:05.599Z,8.10
2019-05-17T09:17:05.694Z,6.80
2019-05-17T09:18:05.790Z,7.40
2019-05-17T09:19:05.886Z,7.00
2019-05-17T09:20:05.984Z,7.00
2019-05-17T09:21:06.097Z,6.30
2019-05-17T09:22:06.170Z,6.70
2019-05-17T09:23:06.261Z,7.00
2019-05-17T09:24:06.364Z,7.90
2019-05-17T09:25:06.469Z,7.20
2019-05-17T09:26:06.564Z,7.80
2019-05-17T09:27:06.660Z,7.70
2019-05-17T09:28:06.759Z,7.40
2019-05-17T09:29:06.873Z,7.10
2019-05-17T09:30:09.327Z,6.30
2019-05-17T09:31:07.063Z,6.60
2019-05-17T09:32:09.434Z,6.30
2019-05-17T09:33:07.260Z,5.80
2019-05-17T09:34:09.551Z,6.10
2019-05-17T09:35:09.806Z,6.90
2019-05-17T09:36:09.960Z,6.30
2019-05-17T09:37:09.829Z,6.70
2019-05-17T09:38:10.072Z,6.20
2019-05-17T09:39:09.455Z,7.30
2019-05-17T09:40:09.336Z,8.10
2019-05-17T09:41:09.380Z,7.00
2019-05-17T09:42:10.169Z,5.60
2019-05-17T09:43:10.122Z,6.10
2019-05-17T09:44:15.681Z,5.80
2019-05-17T09:45:09.642Z,6.70
2019-05-17T09:46:10.574Z,6.00
2019-05-17T09:47:10.106Z,5.90
2019-05-17T09:48:10.251Z,6.30
2019-05-17T09:49:10.431Z,6.10
2019-05-17T09:50:09.899Z,5.80
2019-05-17T09:51:10.499Z,5.70
2019-05-17T09:52:09.578Z,5.90
2019-05-17T09:53:10.676Z,5.60
2019-05-17T09:54:10.301Z,6.20
2019-05-17T09:55:09.894Z,6.10
2019-05-17T09:56:09.922Z,6.00
2019-05-17T09:57:09.976Z,5.60
2019-05-17T09:58:10.011Z,5.30
2019-05-17T09:59:10.075Z,5.60
2019-05-17T10:00:10.069Z,6.60
2019-05-17T10:01:09.926Z,5.70
2019-05-17T10:02:10.034Z,5.60
2019-05-17T10:03:10.133Z,5.60
2019-05-17T10:04:13.434Z,6.20
2019-05-17T10:05:10.894Z,6.40
2019-05-17T10:06:10.406Z,5.80
2019-05-17T10:07:10.499Z,5.70
2019-05-17T10:08:10.978Z,5.40
2019-05-17T10:09:10.699Z,5.50
2019-05-17T10:10:10.922Z,5.80
2019-05-17T10:11:12.184Z,5.30
2019-05-17T10:12:11.000Z,5.40
2019-05-17T10:13:11.106Z,5.60
2019-05-17T10:14:24.591Z,5.90
2019-05-17T10:15:11.293Z,5.90
2019-05-17T10:16:11.389Z,6.00
2019-05-17T10:17:11.484Z,6.00
2019-05-17T10:18:11.581Z,6.30
2019-05-17T10:19:11.675Z,5.80
2019-05-17T10:20:11.776Z,5.80
2019-05-17T10:21:11.871Z,6.20
2019-05-17T10:22:11.967Z,6.20
2019-05-17T10:23:12.074Z,6.50
2019-05-17T10:24:12.161Z,6.90
2019-05-17T10:25:12.257Z,6.30
2019-05-17T10:26:12.355Z,6.20
2019-05-17T10:27:14.552Z,6.30
2019-05-17T10:28:12.547Z,6.10
2019-05-17T10:29:12.643Z,6.10
2019-05-17T10:30:12.740Z,6.80
2019-05-17T10:31:12.841Z,6.20
2019-05-17T10:32:12.936Z,6.00
2019-05-17T10:33:13.028Z,6.10
2019-05-17T10:34:13.130Z,6.10
2019-05-17T10:35:13.230Z,6.20
2019-05-17T10:36:13.327Z,6.70
2019-05-17T10:37:13.415Z,6.20
2019-05-17T10:38:13.516Z,6.20
2019-05-17T10:39:13.612Z,6.30
2019-05-17T10:40:13.712Z,6.00
2019-05-17T10:41:13.812Z,6.20
2019-05-17T10:42:13.911Z,6.30
2019-05-17T10:43:14.009Z,6.30
2019-05-17T10:44:14.104Z,6.40
2019-05-17T10:45:14.197Z,6.70
2019-05-17T10:46:14.289Z,6.20
2019-05-17T10:47:14.382Z,6.30
2019-05-17T10:48:14.480Z,6.30
2019-05-17T10:49:14.579Z,6.20
2019-05-17T10:50:14.672Z,6.60
2019-05-17T10:51:14.774Z,5.90
2019-05-17T10:52:14.873Z,6.70
2019-05-17T10:53:14.971Z,5.80
2019-05-17T10:54:15.071Z,5.60
2019-05-17T10:55:15.174Z,6.20
2019-05-17T10:56:15.262Z,5.70
2019-05-17T10:57:15.361Z,5.70
2019-05-17T10:58:15.455Z,5.80
2019-05-17T10:59:15.554Z,5.70
2019-05-17T11:00:15.656Z,5.10
2019-05-17T11:01:15.751Z,5.00
2019-05-17T11:02:15.855Z,4.70
2019-05-17T11:03:15.952Z,4.50
2019-05-17T11:04:16.050Z,4.30
2019-05-17T11:05:16.138Z,4.00
2019-05-17T11:06:16.245Z,4.30
2019-05-17T11:07:16.364Z,4.70
2019-05-17T11:08:16.434Z,5.20
2019-05-17T11:09:16.533Z,5.10
2019-05-17T11:10:16.629Z,4.70
2019-05-17T11:11:16.723Z,4.60
2019-05-17T11:12:16.818Z,4.20
2019-05-17T11:13:16.919Z,4.50
2019-05-17T11:14:17.015Z,4.30
2019-05-17T11:15:17.106Z,4.60
2019-05-17T11:16:17.211Z,4.00
2019-05-17T11:17:17.301Z,4.60
2019-05-17T11:18:17.397Z,4.60
2019-05-17T11:19:17.495Z,4.70
2019-05-17T11:20:17.591Z,4.60
2019-05-17T11:21:17.688Z,4.60
2019-05-17T11:22:17.790Z,4.50
2019-05-17T11:23:17.882Z,4.10
2019-05-17T11:24:17.984Z,4.70
2019-05-17T11:25:18.069Z,4.30
2019-05-17T11:26:18.173Z,4.40
2019-05-17T11:27:18.306Z,4.90
2019-05-17T11:28:18.358Z,4.50
2019-05-17T11:29:18.454Z,4.50
2019-05-17T11:30:18.552Z,4.80
2019-05-17T11:31:18.649Z,5.40
2019-05-17T11:32:18.751Z,5.50
2019-05-17T11:33:18.846Z,5.10
2019-05-17T11:34:18.938Z,5.10
2019-05-17T11:35:19.036Z,5.30
2019-05-17T11:36:19.186Z,5.00
2019-05-17T11:37:19.227Z,4.90
2019-05-17T11:38:19.325Z,5.70
2019-05-17T11:39:19.419Z,5.10
2019-05-17T11:40:19.522Z,4.70
2019-05-17T11:41:21.554Z,4.90
2019-05-17T11:42:19.712Z,5.50
2019-05-17T11:43:19.813Z,5.30
2019-05-17T11:44:19.913Z,5.20
2019-05-17T11:45:28.204Z,5.00
2019-05-17T11:46:35.050Z,5.30
2019-05-17T11:47:20.202Z,4.90
2019-05-17T11:48:20.295Z,5.40
2019-05-17T11:49:20.402Z,4.80
2019-05-17T11:50:20.496Z,4.80
2019-05-17T11:51:20.593Z,5.30
2019-05-17T11:52:20.691Z,4.40
2019-05-17T11:53:20.789Z,5.10
2019-05-17T11:54:20.886Z,4.60
2019-05-17T11:55:20.981Z,4.90
2019-05-17T11:56:21.079Z,4.40
2019-05-17T11:57:21.178Z,4.10
2019-05-17T11:58:21.273Z,4.90
2019-05-17T11:59:21.371Z,4.00
2019-05-17T12:00:21.473Z,4.60
2019-05-17T12:01:21.568Z,4.10
2019-05-17T12:02:21.712Z,4.30
2019-05-17T12:03:21.782Z,4.50
2019-05-17T12:04:21.885Z,4.60
2019-05-17T12:05:21.978Z,4.40
2019-05-17T12:06:22.079Z,4.40
2019-05-17T12:07:22.217Z,4.60
2019-05-17T12:08:22.310Z,4.40
2019-05-17T12:09:36.437Z,4.70
2019-05-17T12:10:22.696Z,3.90
2019-05-17T12:11:22.622Z,4.50
2019-05-17T12:12:22.700Z,4.30
2019-05-17T12:13:22.799Z,4.60
2019-05-17T12:14:22.899Z,3.90
2019-05-17T12:15:22.996Z,4.30
2019-05-17T12:16:23.091Z,3.90
2019-05-17T12:17:23.194Z,4.30
2019-05-17T12:18:23.287Z,4.20
2019-05-17T12:19:23.385Z,3.90
2019-05-17T12:20:23.486Z,4.00
2019-05-17T12:21:23.582Z,4.10
2019-05-17T12:22:23.685Z,4.10
2019-05-17T12:23:23.804Z,4.40
2019-05-17T12:24:23.924Z,4.20
2019-05-17T12:25:24.024Z,4.20
2019-05-17T12:26:24.121Z,4.30
2019-05-17T12:27:24.220Z,4.00
2019-05-17T12:28:24.314Z,3.90
2019-05-17T12:29:24.409Z,3.90
2019-05-17T12:30:24.515Z,3.90
2019-05-17T12:31:24.608Z,3.80
2019-05-17T12:32:24.710Z,4.10
2019-05-17T12:33:24.803Z,4.30
2019-05-17T12:34:24.903Z,4.20
2019-05-17T12:35:25.002Z,4.30
2019-05-17T12:36:25.103Z,3.90
2019-05-17T12:37:25.198Z,4.10
2019-05-17T12:38:25.297Z,4.10
2019-05-17T12:39:25.394Z,3.90
2019-05-17T12:40:25.493Z,4.30
2019-05-17T12:41:25.591Z,3.90
2019-05-17T12:42:25.690Z,4.00
2019-05-17T12:43:25.784Z,4.20
2019-05-17T12:44:25.887Z,4.40
2019-05-17T12:45:25.985Z,4.50
2019-05-17T12:46:26.080Z,4.70
2019-05-17T12:47:26.184Z,4.60
2019-05-17T12:48:26.273Z,4.20
2019-05-17T12:49:26.376Z,4.30
2019-05-17T12:50:26.469Z,4.60
2019-05-17T12:51:26.569Z,4.30
2019-05-17T12:52:26.666Z,4.30
2019-05-17T12:53:26.772Z,4.40
2019-05-17T12:54:26.862Z,5.30
2019-05-17T12:55:26.962Z,5.20
2019-05-17T12:56:27.060Z,4.80
2019-05-17T12:57:27.159Z,4.20
2019-05-17T12:58:27.255Z,4.10
2019-05-17T12:59:27.353Z,4.20
2019-05-17T13:00:27.450Z,4.30
2019-05-17T13:01:27.548Z,4.00
2019-05-17T13:02:27.646Z,4.50
2019-05-17T13:03:27.754Z,4.60
2019-05-17T13:04:27.844Z,4.40
2019-05-17T13:05:27.960Z,4.20
2019-05-17T13:06:28.062Z,4.20